Time;durP1;ratioP1;P1;durP2;ratioP2;P2;SDS_P1;SDS_P2;PMS_P1;PMS_P2;Temp;Humidity;BMP_temperature;BMP_pressure;BME280_temperature;BME280_humidity;BME280_pressure;Samples;Min_cycle;Max_cycle;Signal;HPM_P1;HPM_P2
2022/08/03 00:01:25;;;;;;;8.32;4.60;;;;;;;;;;4214678;28;20085;-72
2022/08/03 00:03:25;;;;;;;6.78;4.70;;;;;;;;;;4215327;28;20046;-71
2022/08/03 00:05:26;;;;;;;9.32;4.60;;;;;;;;;;4214866;28;20051;-72
2022/08/03 00:07:27;;;;;;;10.82;4.43;;;;;;;;;;4215215;28;20060;-72
2022/08/03 00:09:30;;;;;;;11.30;4.47;;;;;;;;;;4214448;28;20143;-72
2022/08/03 00:11:30;;;;;;;10.23;4.57;;;;;;;;;;4215161;28;20056;-72
2022/08/03 00:13:32;;;;;;;7.05;4.90;;;;;;;;;;4214631;28;20046;-71
2022/08/03 00:15:33;;;;;;;8.50;4.20;;;;;;;;;;4214471;28;20097;-72
2022/08/03 00:17:34;;;;;;;5.13;4.10;;;;;;;;;;4214830;28;20451;-72
2022/08/03 00:19:35;;;;;;;7.93;4.40;;;;;;;;;;4213796;28;20086;-72
2022/08/03 00:21:36;;;;;;;5.65;4.25;;;;;;;;;;4215024;28;20024;-71
2022/08/03 00:23:40;;;;;;;5.57;4.72;;;;;;;;;;4214748;28;20036;-72
2022/08/03 00:25:41;;;;;;;5.35;4.15;;;;;;;;;;4214614;28;20036;-70
2022/08/03 00:27:42;;;;;;;7.03;4.40;;;;;;;;;;4214406;28;20418;-71
2022/08/03 00:29:43;;;;;;;5.00;4.47;;;;;;;;;;4214653;28;20016;-71
2022/08/03 00:31:47;;;;;;;4.53;4.05;;;;;;;;;;4214242;28;20044;-71
2022/08/03 00:33:48;;;;;;;6.55;4.60;;;;;;;;;;4214674;28;20036;-72
2022/08/03 00:35:49;;;;;;;5.68;4.60;;;;;;;;;;4214430;28;20089;-72
2022/08/03 00:37:50;;;;;;;8.93;4.75;;;;;;;;;;4214483;28;20028;-72
2022/08/03 00:39:51;;;;;;;4.85;4.32;;;;;;;;;;4213907;28;20070;-72
2022/08/03 00:41:52;;;;;;;5.35;4.35;;;;;;;;;;4214583;28;20115;-72
2022/08/03 00:43:52;;;;;;;7.65;4.38;;;;;;;;;;4213501;28;20055;-72
2022/08/03 00:45:56;;;;;;;5.05;4.28;;;;;;;;;;4214232;28;20028;-71
2022/08/03 00:48:00;;;;;;;7.18;4.70;;;;;;;;;;4214151;28;20548;-71
2022/08/03 00:50:04;;;;;;;6.28;4.28;;;;;;;;;;4213597;28;20100;-71
2022/08/03 00:52:07;;;;;;;8.45;4.20;;;;;;;;;;4214126;28;20487;-71
2022/08/03 00:54:09;;;;;;;4.45;4.05;;;;;;;;;;4213778;28;20020;-71
2022/08/03 00:56:12;;;;;;;7.65;4.78;;;;;;;;;;4214023;28;20028;-71
2022/08/03 00:58:16;;;;;;;5.78;4.43;;;;;;;;;;4213992;28;20037;-71
2022/08/03 01:00:18;;;;;;;5.32;4.82;;;;;;;;;;4213854;28;20039;-71
2022/08/03 01:02:19;;;;;;;8.60;5.07;;;;;;;;;;4214011;28;20028;-71
2022/08/03 01:04:23;;;;;;;5.20;4.00;;;;;;;;;;4213925;28;20066;-72
2022/08/03 01:06:35;;;;;;;4.83;4.33;;;;;;;;;;4211960;28;20032;-71
2022/08/03 01:08:43;;;;;;;7.03;4.35;;;;;;;;;;4214293;28;20032;-72
2022/08/03 01:11:02;;;;;;;5.72;4.55;;;;;;;;;;4213193;28;20089;-72
2022/08/03 01:13:11;;;;;;;7.55;4.65;;;;;;;;;;4214149;28;20036;-71
2022/08/03 01:15:18;;;;;;;4.53;4.13;;;;;;;;;;4213854;28;20040;-72
2022/08/03 01:17:23;;;;;;;5.68;4.32;;;;;;;;;;4214175;28;20024;-72
2022/08/03 01:19:43;;;;;;;4.28;3.95;;;;;;;;;;4213338;28;20089;-71
2022/08/03 01:21:44;;;;;;;6.20;4.22;;;;;;;;;;4213738;28;20028;-72
2022/08/03 01:23:58;;;;;;;5.00;4.50;;;;;;;;;;4213947;28;20093;-71
2022/08/03 01:26:04;;;;;;;4.43;4.00;;;;;;;;;;4212599;28;20177;-72
2022/08/03 01:28:24;;;;;;;4.72;4.13;;;;;;;;;;4213823;28;20032;-71
2022/08/03 01:30:28;;;;;;;4.68;4.13;;;;;;;;;;4213812;28;20040;-71
2022/08/03 01:32:32;;;;;;;4.70;4.30;;;;;;;;;;4213825;28;20106;-71
2022/08/03 01:34:35;;;;;;;5.05;4.10;;;;;;;;;;4213832;28;20496;-71
2022/08/03 01:36:38;;;;;;;4.78;4.38;;;;;;;;;;4213574;28;20413;-72
2022/08/03 01:38:47;;;;;;;6.03;4.10;;;;;;;;;;4213980;28;20070;-72
2022/08/03 01:40:50;;;;;;;4.55;4.15;;;;;;;;;;4213252;28;20039;-72
2022/08/03 01:42:53;;;;;;;5.97;4.40;;;;;;;;;;4212424;28;20453;-71
2022/08/03 01:44:56;;;;;;;4.80;4.30;;;;;;;;;;4212937;28;20357;-72
2022/08/03 01:47:00;;;;;;;4.95;4.20;;;;;;;;;;4213114;28;20032;-72
2022/08/03 01:49:06;;;;;;;4.55;4.15;;;;;;;;;;4213667;28;20073;-72
2022/08/03 01:51:07;;;;;;;5.88;4.35;;;;;;;;;;4213714;28;20036;-72
2022/08/03 01:53:09;;;;;;;4.50;4.13;;;;;;;;;;4212910;28;20082;-72
2022/08/03 01:55:11;;;;;;;4.75;4.35;;;;;;;;;;4213927;28;20425;-72
2022/08/03 01:57:15;;;;;;;5.32;4.90;;;;;;;;;;4216381;28;20414;-71
2022/08/03 01:59:17;;;;;;;5.27;4.77;;;;;;;;;;4216535;28;20037;-72
2022/08/03 02:01:20;;;;;;;4.35;4.05;;;;;;;;;;4216842;28;20273;-72
2022/08/03 02:03:22;;;;;;;5.22;4.30;;;;;;;;;;4217188;28;20020;-72
2022/08/03 02:05:26;;;;;;;4.53;4.13;;;;;;;;;;4216395;28;20097;-70
2022/08/03 02:07:34;;;;;;;5.70;4.45;;;;;;;;;;4216638;28;20036;-71
2022/08/03 02:09:37;;;;;;;4.90;4.38;;;;;;;;;;4216002;28;20036;-72
2022/08/03 02:11:37;;;;;;;4.72;4.32;;;;;;;;;;4216276;28;20093;-72
2022/08/03 02:13:39;;;;;;;4.50;4.10;;;;;;;;;;4216677;28;20418;-72
2022/08/03 02:15:40;;;;;;;9.93;4.40;;;;;;;;;;4216692;28;20093;-72
2022/08/03 02:17:43;;;;;;;4.30;3.90;;;;;;;;;;4216032;28;20031;-70
2022/08/03 02:19:46;;;;;;;4.40;4.00;;;;;;;;;;4216695;28;20024;-71
2022/08/03 02:21:47;;;;;;;4.35;3.92;;;;;;;;;;4217122;28;20024;-71
2022/08/03 02:23:49;;;;;;;4.30;3.90;;;;;;;;;;4216545;28;20097;-71
2022/08/03 02:25:52;;;;;;;5.65;4.25;;;;;;;;;;4217002;28;20398;-72
2022/08/03 02:28:15;;;;;;;4.60;4.20;;;;;;;;;;4216349;28;20093;-72
2022/08/03 02:30:16;;;;;;;4.93;3.83;;;;;;;;;;4214734;28;20032;-71
2022/08/03 02:32:20;;;;;;;4.93;4.43;;;;;;;;;;4216513;28;20028;-72
2022/08/03 02:34:22;;;;;;;4.28;3.88;;;;;;;;;;4216301;28;20058;-71
2022/08/03 02:36:25;;;;;;;4.57;4.18;;;;;;;;;;4216092;28;20036;-72
2022/08/03 02:38:30;;;;;;;4.75;4.03;;;;;;;;;;4216454;28;20366;-71
2022/08/03 02:40:35;;;;;;;4.97;4.13;;;;;;;;;;4213491;28;20463;-71
2022/08/03 02:42:37;;;;;;;4.40;4.00;;;;;;;;;;4213680;28;20045;-71
2022/08/03 02:44:46;;;;;;;6.32;4.25;;;;;;;;;;4216658;28;20024;-72
2022/08/03 02:46:48;;;;;;;4.90;4.40;;;;;;;;;;4216206;28;20035;-72
2022/08/03 02:48:52;;;;;;;4.53;4.10;;;;;;;;;;4216408;28;20044;-72
2022/08/03 02:50:54;;;;;;;4.70;4.20;;;;;;;;;;4215108;28;20039;-72
2022/08/03 02:52:56;;;;;;;4.75;4.35;;;;;;;;;;4216389;28;20036;-72
2022/08/03 02:54:58;;;;;;;4.72;4.25;;;;;;;;;;4216173;28;20108;-72
2022/08/03 02:57:00;;;;;;;4.63;4.18;;;;;;;;;;4216296;28;20097;-72
2022/08/03 02:59:01;;;;;;;4.90;4.40;;;;;;;;;;4210373;28;20036;-71
2022/08/03 03:01:02;;;;;;;4.88;4.47;;;;;;;;;;4215650;28;20039;-71
2022/08/03 03:03:05;;;;;;;4.75;4.35;;;;;;;;;;4216322;28;20060;-72
2022/08/03 03:05:06;;;;;;;5.00;4.50;;;;;;;;;;4215823;28;20089;-72
2022/08/03 03:07:07;;;;;;;4.82;4.40;;;;;;;;;;4214656;28;20032;-72
2022/08/03 03:09:09;;;;;;;4.60;4.20;;;;;;;;;;4215289;28;20467;-71
2022/08/03 03:11:10;;;;;;;4.63;4.22;;;;;;;;;;4215382;28;20097;-72
2022/08/03 03:13:12;;;;;;;4.57;4.18;;;;;;;;;;4215775;28;20039;-71
2022/08/03 03:15:13;;;;;;;4.50;4.10;;;;;;;;;;4216229;28;20020;-71
2022/08/03 03:17:16;;;;;;;5.00;4.47;;;;;;;;;;4215794;28;20111;-72
2022/08/03 03:19:18;;;;;;;5.60;3.85;;;;;;;;;;4215490;28;20032;-72
2022/08/03 03:21:22;;;;;;;4.75;4.25;;;;;;;;;;4215550;28;20032;-72
2022/08/03 03:23:26;;;;;;;4.50;4.10;;;;;;;;;;4214516;28;20028;-71
2022/08/03 03:25:31;;;;;;;4.85;4.05;;;;;;;;;;4215497;28;20437;-72
2022/08/03 03:27:34;;;;;;;4.45;4.10;;;;;;;;;;4215398;28;20032;-72
2022/08/03 03:29:35;;;;;;;4.60;4.20;;;;;;;;;;4214264;28;20066;-72
2022/08/03 03:31:36;;;;;;;4.70;4.30;;;;;;;;;;4215212;28;20048;-72
2022/08/03 03:33:37;;;;;;;3.88;3.58;;;;;;;;;;4215693;28;20107;-72
2022/08/03 03:35:40;;;;;;;4.22;3.90;;;;;;;;;;4215160;28;20109;-72
2022/08/03 03:37:41;;;;;;;4.65;4.25;;;;;;;;;;4215253;28;20029;-71
2022/08/03 03:39:42;;;;;;;4.40;4.00;;;;;;;;;;4213971;28;20082;-72
2022/08/03 03:41:42;;;;;;;4.68;4.15;;;;;;;;;;4215531;28;20521;-71
2022/08/03 03:43:44;;;;;;;4.85;4.20;;;;;;;;;;4215199;28;20093;-72
2022/08/03 03:45:48;;;;;;;4.22;3.92;;;;;;;;;;4215286;28;20028;-71
2022/08/03 03:47:49;;;;;;;5.00;4.22;;;;;;;;;;4215138;28;20437;-72
2022/08/03 03:49:50;;;;;;;5.57;4.15;;;;;;;;;;4214863;28;20032;-72
2022/08/03 03:51:54;;;;;;;4.28;3.88;;;;;;;;;;4215061;28;20040;-72
2022/08/03 03:53:55;;;;;;;4.50;4.10;;;;;;;;;;4214936;28;20085;-72
2022/08/03 03:55:56;;;;;;;3.90;3.60;;;;;;;;;;4215260;28;20035;-72
2022/08/03 03:57:59;;;;;;;4.65;4.25;;;;;;;;;;4215315;28;20111;-72
2022/08/03 04:00:00;;;;;;;4.35;3.97;;;;;;;;;;4214628;28;20467;-72
2022/08/03 04:02:01;;;;;;;4.28;3.92;;;;;;;;;;4215302;28;20008;-71
2022/08/03 04:10:57;;;;;;;4.07;3.78;;;;;;;;;;4214742;28;20438;-71
2022/08/03 04:11:19;;;;;;;4.20;3.90;;;;;;;;;;4214777;28;20043;-71
2022/08/03 04:13:20;;;;;;;4.28;3.88;;;;;;;;;;4215080;28;20475;-72
2022/08/03 04:15:23;;;;;;;5.00;4.50;;;;;;;;;;4214584;28;20051;-72
2022/08/03 04:17:26;;;;;;;4.22;3.92;;;;;;;;;;4214684;28;20115;-72
2022/08/03 04:19:47;;;;;;;3.90;3.60;;;;;;;;;;4214226;28;20046;-71
2022/08/03 04:21:50;;;;;;;4.18;3.78;;;;;;;;;;4214049;28;20024;-72
2022/08/03 04:23:53;;;;;;;4.30;3.85;;;;;;;;;;4214595;28;20032;-72
2022/08/03 04:25:55;;;;;;;4.00;3.70;;;;;;;;;;4214623;28;20032;-72
2022/08/03 04:27:58;;;;;;;4.65;4.25;;;;;;;;;;4214697;28;20058;-72
2022/08/03 04:30:01;;;;;;;4.65;3.72;;;;;;;;;;4214132;28;20032;-72
2022/08/03 04:32:03;;;;;;;4.20;3.90;;;;;;;;;;4208797;28;20093;-71
2022/08/03 04:34:04;;;;;;;3.95;3.60;;;;;;;;;;4214325;28;20027;-71
2022/08/03 04:36:07;;;;;;;4.20;3.80;;;;;;;;;;4214892;28;20036;-72
2022/08/03 04:38:11;;;;;;;3.80;3.50;;;;;;;;;;4214288;28;20036;-72
2022/08/03 04:40:25;;;;;;;4.13;3.83;;;;;;;;;;4212828;28;20105;-72
2022/08/03 04:42:26;;;;;;;4.40;4.00;;;;;;;;;;4214161;28;20097;-72
2022/08/03 04:44:27;;;;;;;3.92;3.63;;;;;;;;;;4214069;28;20028;-72
2022/08/03 04:46:33;;;;;;;3.90;3.53;;;;;;;;;;4213864;28;20032;-72
2022/08/03 04:48:34;;;;;;;4.22;3.83;;;;;;;;;;4214214;28;20035;-72
2022/08/03 04:50:35;;;;;;;4.25;3.90;;;;;;;;;;4213895;28;20123;-72
2022/08/03 04:52:36;;;;;;;4.00;3.58;;;;;;;;;;4214105;28;20039;-71
2022/08/03 04:54:41;;;;;;;3.88;3.58;;;;;;;;;;4214286;28;20105;-72
2022/08/03 04:56:42;;;;;;;3.88;3.42;;;;;;;;;;4214110;28;20113;-70
2022/08/03 04:58:43;;;;;;;3.95;3.65;;;;;;;;;;4214430;28;20024;-70
2022/08/03 05:00:44;;;;;;;4.32;3.95;;;;;;;;;;4213946;28;20043;-72
2022/08/03 05:02:45;;;;;;;4.20;3.90;;;;;;;;;;4214290;28;20028;-73
2022/08/03 05:04:46;;;;;;;3.78;3.47;;;;;;;;;;4214268;28;20020;-73
2022/08/03 05:06:50;;;;;;;4.03;3.63;;;;;;;;;;4213975;28;20032;-71
2022/08/03 05:08:51;;;;;;;4.20;3.90;;;;;;;;;;4213844;28;20032;-71
2022/08/03 05:10:55;;;;;;;3.90;3.60;;;;;;;;;;4213742;28;20040;-71
2022/08/03 05:12:56;;;;;;;4.07;3.67;;;;;;;;;;4214030;28;20052;-70
2022/08/03 05:15:00;;;;;;;3.90;3.60;;;;;;;;;;4214231;28;20133;-69
2022/08/03 05:17:00;;;;;;;4.00;3.70;;;;;;;;;;4212318;28;20081;-70
2022/08/03 05:19:01;;;;;;;3.78;3.47;;;;;;;;;;4199701;28;20033;-69
2022/08/03 05:21:02;;;;;;;3.58;3.28;;;;;;;;;;4198284;28;20040;-69
2022/08/03 05:23:06;;;;;;;4.20;3.80;;;;;;;;;;4213619;28;20032;-71
2022/08/03 05:25:07;;;;;;;3.65;3.35;;;;;;;;;;4213399;28;20044;-70
2022/08/03 05:27:08;;;;;;;3.67;3.38;;;;;;;;;;4214158;28;20474;-71
2022/08/03 05:29:09;;;;;;;4.45;4.03;;;;;;;;;;4213341;28;20028;-70
2022/08/03 05:31:12;;;;;;;3.65;3.35;;;;;;;;;;4214359;28;20035;-71
2022/08/03 05:33:13;;;;;;;4.25;3.88;;;;;;;;;;4215520;28;20056;-71
2022/08/03 05:35:14;;;;;;;3.70;3.40;;;;;;;;;;4216601;28;20543;-71
2022/08/03 05:37:15;;;;;;;3.67;3.38;;;;;;;;;;4217489;28;20058;-71
2022/08/03 05:39:19;;;;;;;3.78;3.47;;;;;;;;;;4217028;28;20030;-71
2022/08/03 05:41:19;;;;;;;3.83;3.53;;;;;;;;;;4217159;28;20506;-71
2022/08/03 05:43:21;;;;;;;3.88;3.47;;;;;;;;;;4216986;28;20028;-71
2022/08/03 05:45:23;;;;;;;4.10;3.70;;;;;;;;;;4216912;28;20085;-69
2022/08/03 05:47:23;;;;;;;4.40;3.60;;;;;;;;;;4215959;28;20027;-70
2022/08/03 05:49:24;;;;;;;3.85;3.55;;;;;;;;;;4211637;28;20067;-70
2022/08/03 05:51:26;;;;;;;3.80;3.50;;;;;;;;;;4213751;28;20119;-70
2022/08/03 05:53:27;;;;;;;4.35;3.83;;;;;;;;;;4214977;28;20069;-70
2022/08/03 05:55:28;;;;;;;4.30;3.45;;;;;;;;;;4216731;28;20063;-70
2022/08/03 05:57:29;;;;;;;4.15;3.50;;;;;;;;;;4216539;28;20024;-70
2022/08/03 05:59:33;;;;;;;3.75;3.45;;;;;;;;;;4216871;28;20074;-70
2022/08/03 06:01:33;;;;;;;5.60;3.67;;;;;;;;;;4217123;28;20100;-70
2022/08/03 06:03:36;;;;;;;3.90;3.50;;;;;;;;;;4212473;28;20020;-70
2022/08/03 06:05:40;;;;;;;6.97;4.10;;;;;;;;;;4216547;28;20040;-70
2022/08/03 06:07:43;;;;;;;5.80;3.42;;;;;;;;;;4215166;28;20024;-69
2022/08/03 06:09:44;;;;;;;4.72;3.88;;;;;;;;;;4216265;28;20093;-70
2022/08/03 06:11:48;;;;;;;4.93;3.75;;;;;;;;;;4216644;28;20046;-70
2022/08/03 06:13:49;;;;;;;4.95;4.18;;;;;;;;;;4214681;28;20036;-71
2022/08/03 06:15:49;;;;;;;5.88;4.35;;;;;;;;;;4215456;28;20040;-71
2022/08/03 06:17:55;;;;;;;4.82;4.30;;;;;;;;;;4215891;28;20063;-70
2022/08/03 06:19:56;;;;;;;6.35;4.47;;;;;;;;;;4216354;28;20040;-70
2022/08/03 06:22:00;;;;;;;6.50;4.03;;;;;;;;;;4216148;28;20085;-70
2022/08/03 06:24:01;;;;;;;6.63;4.40;;;;;;;;;;4216786;28;20440;-69
2022/08/03 06:26:02;;;;;;;4.68;4.28;;;;;;;;;;4216079;28;20028;-69
2022/08/03 06:28:04;;;;;;;5.72;4.35;;;;;;;;;;4216727;28;20450;-70
2022/08/03 06:30:09;;;;;;;5.30;4.65;;;;;;;;;;4216114;28;20082;-71
2022/08/03 06:32:10;;;;;;;6.07;5.13;;;;;;;;;;4216181;28;20044;-71
2022/08/03 06:34:11;;;;;;;5.75;4.80;;;;;;;;;;4213377;28;20527;-71
2022/08/03 06:36:11;;;;;;;7.95;5.00;;;;;;;;;;4216652;28;20106;-71
2022/08/03 06:38:12;;;;;;;6.25;4.28;;;;;;;;;;4216508;28;20075;-71
2022/08/03 06:40:18;;;;;;;5.45;4.80;;;;;;;;;;4215745;28;20036;-70
2022/08/03 06:42:19;;;;;;;5.75;5.00;;;;;;;;;;4215294;28;20089;-71
2022/08/03 06:44:22;;;;;;;5.70;4.63;;;;;;;;;;4216628;28;20062;-70
2022/08/03 06:46:23;;;;;;;5.05;4.47;;;;;;;;;;4216440;28;20020;-70
2022/08/03 06:48:24;;;;;;;5.15;4.60;;;;;;;;;;4216012;28;20093;-71
2022/08/03 06:50:25;;;;;;;5.50;4.38;;;;;;;;;;4215238;28;20475;-70
2022/08/03 06:52:26;;;;;;;5.80;4.80;;;;;;;;;;4216193;28;20123;-70
2022/08/03 06:54:27;;;;;;;4.90;4.50;;;;;;;;;;4215841;28;20034;-70
2022/08/03 06:56:33;;;;;;;4.75;4.28;;;;;;;;;;4215857;28;20446;-70
2022/08/03 06:58:34;;;;;;;5.13;4.57;;;;;;;;;;4216047;28;20040;-70
2022/08/03 07:00:35;;;;;;;4.95;4.47;;;;;;;;;;4215623;28;20032;-70
2022/08/03 07:02:36;;;;;;;5.40;4.40;;;;;;;;;;4215976;28;20055;-70
2022/08/03 07:04:40;;;;;;;5.00;4.50;;;;;;;;;;4215212;28;20479;-70
2022/08/03 07:06:41;;;;;;;6.45;4.25;;;;;;;;;;4216427;28;20023;-69
2022/08/03 07:08:45;;;;;;;6.13;4.22;;;;;;;;;;4216173;28;20032;-69
2022/08/03 07:10:46;;;;;;;5.10;4.38;;;;;;;;;;4213649;28;20117;-70
2022/08/03 07:12:46;;;;;;;4.63;4.00;;;;;;;;;;4215365;28;20156;-70
2022/08/03 07:14:50;;;;;;;4.75;4.20;;;;;;;;;;4215556;28;20531;-70
2022/08/03 07:16:51;;;;;;;5.53;4.65;;;;;;;;;;4215618;28;20089;-71
2022/08/03 07:18:55;;;;;;;5.57;4.25;;;;;;;;;;4215415;28;20526;-71
2022/08/03 07:20:56;;;;;;;5.03;4.47;;;;;;;;;;4215098;28;20031;-71
2022/08/03 07:22:57;;;;;;;5.90;4.03;;;;;;;;;;4215950;28;20085;-70
2022/08/03 07:24:58;;;;;;;4.40;4.00;;;;;;;;;;4215130;28;20107;-70
2022/08/03 07:26:59;;;;;;;4.90;4.40;;;;;;;;;;4215378;28;20042;-70
2022/08/03 07:29:02;;;;;;;4.38;3.97;;;;;;;;;;4215629;28;20039;-70
2022/08/03 07:31:06;;;;;;;4.82;4.35;;;;;;;;;;4215601;28;20028;-70
2022/08/03 07:33:07;;;;;;;4.97;4.50;;;;;;;;;;4215671;28;20105;-70
2022/08/03 07:35:09;;;;;;;4.55;4.15;;;;;;;;;;4215702;28;20032;-70
2022/08/03 07:37:10;;;;;;;4.85;4.38;;;;;;;;;;4215416;28;20028;-70
2022/08/03 07:39:14;;;;;;;5.93;4.30;;;;;;;;;;4214965;28;20032;-70
2022/08/03 07:41:15;;;;;;;3.80;3.50;;;;;;;;;;4215514;28;20061;-70
2022/08/03 07:43:16;;;;;;;5.95;3.85;;;;;;;;;;4215582;28;20077;-70
2022/08/03 07:45:17;;;;;;;3.80;3.50;;;;;;;;;;4215674;28;20503;-70
2022/08/03 07:47:22;;;;;;;4.53;4.13;;;;;;;;;;4214976;28;20123;-70
2022/08/03 07:49:23;;;;;;;4.82;4.32;;;;;;;;;;4215006;28;20040;-70
2022/08/03 07:51:26;;;;;;;4.40;4.00;;;;;;;;;;4215331;28;20028;-70
2022/08/03 07:53:27;;;;;;;4.22;3.83;;;;;;;;;;4214843;28;20109;-70
2022/08/03 07:55:29;;;;;;;4.25;3.85;;;;;;;;;;4215257;28;20036;-70
2022/08/03 07:57:30;;;;;;;4.75;4.32;;;;;;;;;;4215004;28;20032;-70
2022/08/03 07:59:31;;;;;;;4.03;3.63;;;;;;;;;;4214070;28;20538;-70
2022/08/03 08:01:35;;;;;;;3.92;3.60;;;;;;;;;;4212304;28;20093;-70
2022/08/03 08:03:41;;;;;;;5.53;3.70;;;;;;;;;;4215381;28;20032;-70
2022/08/03 08:05:42;;;;;;;4.65;3.58;;;;;;;;;;4214163;28;20085;-69
2022/08/03 08:07:43;;;;;;;4.55;4.10;;;;;;;;;;4214678;28;20043;-70
2022/08/03 08:09:44;;;;;;;3.85;3.35;;;;;;;;;;4213431;28;20039;-70
2022/08/03 08:11:45;;;;;;;4.15;3.75;;;;;;;;;;4215121;28;20483;-70
2022/08/03 08:13:46;;;;;;;4.10;3.22;;;;;;;;;;4214602;28;20078;-70
2022/08/03 08:15:47;;;;;;;4.10;3.70;;;;;;;;;;4212586;28;20509;-70
2022/08/03 08:17:49;;;;;;;3.72;3.38;;;;;;;;;;4213031;28;20174;-70
2022/08/03 08:19:50;;;;;;;4.60;3.63;;;;;;;;;;4214364;28;20058;-70
2022/08/03 08:21:51;;;;;;;3.65;3.00;;;;;;;;;;4213379;28;20165;-70
2022/08/03 08:23:52;;;;;;;4.95;3.63;;;;;;;;;;4212801;28;20033;-70
2022/08/03 08:25:53;;;;;;;5.18;3.72;;;;;;;;;;4215351;28;20067;-71
2022/08/03 08:27:53;;;;;;;3.78;3.38;;;;;;;;;;4214841;28;20028;-70
2022/08/03 08:29:56;;;;;;;3.70;3.40;;;;;;;;;;4213456;28;20125;-70
2022/08/03 08:31:58;;;;;;;3.95;3.55;;;;;;;;;;4200522;28;20426;-70
2022/08/03 08:33:58;;;;;;;3.67;3.38;;;;;;;;;;4203600;28;20438;-70
2022/08/03 08:35:59;;;;;;;3.70;3.40;;;;;;;;;;4215207;28;20036;-71
2022/08/03 08:38:06;;;;;;;3.67;3.30;;;;;;;;;;4214826;28;20047;-72
2022/08/03 08:40:07;;;;;;;3.90;3.53;;;;;;;;;;4212971;28;20032;-70
2022/08/03 08:42:09;;;;;;;4.30;3.50;;;;;;;;;;4214788;28;20066;-71
2022/08/03 08:44:10;;;;;;;5.85;3.42;;;;;;;;;;4214809;28;20193;-70
2022/08/03 08:46:11;;;;;;;3.90;3.40;;;;;;;;;;4214712;28;20036;-70
2022/08/03 08:48:21;;;;;;;3.55;3.25;;;;;;;;;;4207218;28;20098;-70
2022/08/03 08:50:22;;;;;;;3.15;2.95;;;;;;;;;;4212785;28;20081;-71
2022/08/03 08:52:29;;;;;;;3.40;3.10;;;;;;;;;;4211955;28;20089;-70
2022/08/03 08:54:33;;;;;;;3.38;3.08;;;;;;;;;;4214085;28;20040;-70
2022/08/03 08:56:35;;;;;;;3.67;3.30;;;;;;;;;;4214376;28;20097;-70
2022/08/03 08:58:37;;;;;;;3.40;3.10;;;;;;;;;;4214981;28;20045;-70
2022/08/03 09:00:38;;;;;;;3.47;3.17;;;;;;;;;;4213841;28;20032;-70
2022/08/03 09:02:41;;;;;;;3.05;2.83;;;;;;;;;;4214800;28;20109;-70
2022/08/03 09:04:44;;;;;;;3.63;3.17;;;;;;;;;;4213304;28;20541;-70
2022/08/03 09:06:45;;;;;;;3.83;3.53;;;;;;;;;;4214289;28;20522;-70
2022/08/03 09:08:46;;;;;;;3.50;3.20;;;;;;;;;;4214239;28;20042;-70
2022/08/03 09:10:47;;;;;;;3.50;3.20;;;;;;;;;;4213621;28;20387;-70
2022/08/03 09:12:49;;;;;;;3.60;3.00;;;;;;;;;;4213860;28;20044;-70
2022/08/03 09:14:54;;;;;;;3.60;3.30;;;;;;;;;;4214528;28;20433;-70
2022/08/03 09:17:00;;;;;;;3.45;3.15;;;;;;;;;;4214169;28;20429;-70
2022/08/03 09:19:15;;;;;;;3.28;2.97;;;;;;;;;;4214026;28;20422;-70
2022/08/03 09:21:17;;;;;;;3.40;3.10;;;;;;;;;;4213282;28;20560;-70
2022/08/03 09:23:21;;;;;;;3.40;3.10;;;;;;;;;;4214135;28;20306;-70
2022/08/03 09:25:35;;;;;;;3.13;2.88;;;;;;;;;;4214325;28;20036;-70
2022/08/03 09:27:54;;;;;;;3.50;3.20;;;;;;;;;;4213901;28;20040;-71
2022/08/03 09:29:57;;;;;;;3.22;2.92;;;;;;;;;;4213498;28;20479;-71
2022/08/03 09:32:02;;;;;;;3.10;2.90;;;;;;;;;;4213879;28;20036;-70
2022/08/03 09:34:05;;;;;;;3.35;3.05;;;;;;;;;;4213878;28;20105;-71
2022/08/03 09:36:05;;;;;;;3.50;3.20;;;;;;;;;;4213886;28;20441;-70
2022/08/03 09:38:10;;;;;;;3.20;2.90;;;;;;;;;;4214076;28;20062;-71
2022/08/03 09:40:31;;;;;;;3.00;2.80;;;;;;;;;;4213653;28;20039;-70
2022/08/03 09:42:37;;;;;;;3.20;2.90;;;;;;;;;;4213679;28;20029;-70
2022/08/03 09:44:40;;;;;;;3.22;2.80;;;;;;;;;;4211595;28;20085;-70
2022/08/03 09:46:48;;;;;;;3.30;3.00;;;;;;;;;;4213562;28;20165;-70
2022/08/03 09:48:55;;;;;;;3.00;2.72;;;;;;;;;;4212620;28;20036;-70
2022/08/03 09:50:57;;;;;;;3.20;2.90;;;;;;;;;;4211688;28;20065;-71
2022/08/03 09:53:01;;;;;;;3.17;2.90;;;;;;;;;;4212982;28;20102;-70
2022/08/03 09:55:06;;;;;;;3.38;3.08;;;;;;;;;;4214171;28;20032;-70
2022/08/03 09:57:08;;;;;;;3.03;2.40;;;;;;;;;;4213671;28;20036;-71
2022/08/03 09:59:10;;;;;;;2.83;2.63;;;;;;;;;;4208699;28;20028;-71
2022/08/03 10:01:13;;;;;;;3.20;2.90;;;;;;;;;;4202017;28;20043;-70
2022/08/03 10:03:14;;;;;;;3.10;2.80;;;;;;;;;;4213565;28;20036;-71
2022/08/03 10:05:15;;;;;;;3.53;3.22;;;;;;;;;;4213577;28;20116;-71
2022/08/03 10:07:16;;;;;;;2.90;2.70;;;;;;;;;;4212197;28;20479;-70
2022/08/03 10:09:20;;;;;;;3.15;2.85;;;;;;;;;;4213406;28;20036;-71
2022/08/03 10:11:36;;;;;;;3.25;2.95;;;;;;;;;;4211744;28;20502;-69
2022/08/03 10:13:40;;;;;;;3.33;3.03;;;;;;;;;;4210236;28;20089;-70
2022/08/03 10:15:41;;;;;;;3.28;2.70;;;;;;;;;;4212600;28;20039;-70
2022/08/03 10:17:42;;;;;;;2.50;2.30;;;;;;;;;;4214572;28;20040;-69
2022/08/03 10:19:43;;;;;;;3.17;2.88;;;;;;;;;;4216477;28;20372;-70
2022/08/03 10:21:54;;;;;;;3.22;2.92;;;;;;;;;;4216482;28;20032;-70
2022/08/03 10:23:55;;;;;;;2.85;2.65;;;;;;;;;;4214871;28;20078;-71
2022/08/03 10:26:01;;;;;;;3.33;2.50;;;;;;;;;;4216792;28;20053;-70
2022/08/03 10:28:03;;;;;;;2.90;2.70;;;;;;;;;;4214595;28;20048;-70
2022/08/03 10:30:09;;;;;;;2.75;2.55;;;;;;;;;;4215575;28;20036;-70
2022/08/03 10:32:15;;;;;;;2.85;2.65;;;;;;;;;;4214456;28;20032;-70
2022/08/03 10:34:22;;;;;;;2.70;2.50;;;;;;;;;;4204951;28;20048;-70
2022/08/03 10:36:23;;;;;;;2.50;2.30;;;;;;;;;;4215514;28;20057;-70
2022/08/03 10:38:31;;;;;;;3.28;2.97;;;;;;;;;;4214393;28;20418;-70
2022/08/03 10:40:32;;;;;;;2.50;2.30;;;;;;;;;;4214004;28;20043;-70
2022/08/03 10:42:34;;;;;;;3.00;2.70;;;;;;;;;;4214356;28;20114;-70
2022/08/03 10:44:38;;;;;;;2.80;2.60;;;;;;;;;;4215592;28;20544;-70
2022/08/03 10:46:40;;;;;;;3.30;3.00;;;;;;;;;;4214064;28;20040;-70
2022/08/03 10:48:41;;;;;;;2.70;2.50;;;;;;;;;;4213867;28;20033;-70
2022/08/03 10:50:43;;;;;;;2.90;2.70;;;;;;;;;;4214477;28;20493;-70
2022/08/03 10:52:56;;;;;;;2.67;2.47;;;;;;;;;;4213877;28;20570;-69
2022/08/03 10:57:37;;;;;;;2.65;2.45;;;;;;;;;;4207514;28;20467;-70
2022/08/03 11:00:04;;;;;;;2.65;2.20;;;;;;;;;;4201899;28;20036;-71
2022/08/03 11:02:08;;;;;;;2.97;2.60;;;;;;;;;;4215198;28;20032;-71
2022/08/03 11:04:18;;;;;;;2.50;2.30;;;;;;;;;;4216219;28;20097;-70
2022/08/03 11:06:24;;;;;;;2.78;2.58;;;;;;;;;;4214528;28;20028;-71
2022/08/03 11:08:28;;;;;;;2.30;2.10;;;;;;;;;;4214064;28;20036;-71
2022/08/03 11:10:30;;;;;;;2.75;2.55;;;;;;;;;;4212690;28;20105;-70
2022/08/03 11:12:32;;;;;;;3.05;2.50;;;;;;;;;;4210940;28;20109;-70
2022/08/03 11:14:45;;;;;;;2.75;2.45;;;;;;;;;;4213617;28;20087;-70
2022/08/03 11:16:47;;;;;;;2.65;2.45;;;;;;;;;;4215776;28;20024;-70
2022/08/03 11:18:57;;;;;;;2.50;2.30;;;;;;;;;;4212780;28;20036;-71
2022/08/03 11:20:58;;;;;;;3.05;2.78;;;;;;;;;;4213186;28;20040;-70
2022/08/03 11:23:00;;;;;;;2.60;2.40;;;;;;;;;;4213145;28;20036;-70
2022/08/03 11:25:01;;;;;;;2.67;2.47;;;;;;;;;;4212740;28;20028;-70
2022/08/03 11:27:17;;;;;;;2.80;2.60;;;;;;;;;;4215731;28;20040;-70
2022/08/03 11:29:30;;;;;;;2.80;2.60;;;;;;;;;;4213770;28;20105;-70
2022/08/03 11:31:31;;;;;;;2.40;2.20;;;;;;;;;;4213479;28;20093;-70
2022/08/03 11:33:31;;;;;;;3.47;2.70;;;;;;;;;;4213112;28;20480;-70
2022/08/03 11:35:42;;;;;;;2.78;2.58;;;;;;;;;;4212627;28;20024;-70
2022/08/03 11:38:01;;;;;;;2.97;2.67;;;;;;;;;;4214178;28;20028;-70
2022/08/03 11:40:03;;;;;;;2.75;1.95;;;;;;;;;;4213035;28;20044;-70
2022/08/03 11:42:22;;;;;;;2.65;2.45;;;;;;;;;;4211980;28;20548;-70
2022/08/03 11:44:41;;;;;;;2.40;2.20;;;;;;;;;;4203526;28;20368;-70
2022/08/03 11:46:42;;;;;;;2.50;2.30;;;;;;;;;;4213227;28;20097;-70
2022/08/03 11:48:47;;;;;;;2.55;2.35;;;;;;;;;;4213027;28;20052;-70
2022/08/03 11:50:48;;;;;;;2.47;2.28;;;;;;;;;;4212691;28;20081;-70
2022/08/03 11:52:51;;;;;;;2.22;2.08;;;;;;;;;;4214210;28;20421;-70
2022/08/03 11:54:53;;;;;;;2.47;2.28;;;;;;;;;;4214445;28;20036;-70
2022/08/03 11:56:53;;;;;;;2.50;2.30;;;;;;;;;;4215198;28;20031;-70
2022/08/03 11:58:56;;;;;;;2.35;2.20;;;;;;;;;;4215382;28;20055;-70
2022/08/03 12:01:04;;;;;;;2.25;2.08;;;;;;;;;;4211692;28;20036;-71
2022/08/03 12:03:06;;;;;;;2.40;2.20;;;;;;;;;;4214375;28;20037;-70
2022/08/03 12:05:07;;;;;;;2.60;2.40;;;;;;;;;;4215095;28;20471;-71
2022/08/03 12:07:08;;;;;;;2.50;2.30;;;;;;;;;;4215078;28;20183;-70
2022/08/03 12:09:15;;;;;;;2.40;2.20;;;;;;;;;;4212395;28;20044;-70
2022/08/03 12:11:19;;;;;;;2.67;2.47;;;;;;;;;;4214901;28;20093;-70
2022/08/03 12:13:20;;;;;;;2.47;2.22;;;;;;;;;;4214475;28;20056;-70
2022/08/03 12:15:24;;;;;;;3.75;2.20;;;;;;;;;;4214898;28;20032;-69
2022/08/03 12:17:38;;;;;;;2.70;2.50;;;;;;;;;;4215469;28;20020;-70
2022/08/03 12:19:41;;;;;;;2.25;2.05;;;;;;;;;;4214222;28;20459;-70
2022/08/03 12:21:47;;;;;;;2.20;2.10;;;;;;;;;;4215161;28;20040;-70
2022/08/03 12:23:48;;;;;;;2.13;1.92;;;;;;;;;;4211558;28;20103;-70
2022/08/03 12:25:49;;;;;;;2.30;2.10;;;;;;;;;;4214400;28;20032;-70
2022/08/03 12:27:51;;;;;;;2.45;2.25;;;;;;;;;;4212974;28;20040;-70